Time;durP1;ratioP1;P1;durP2;ratioP2;P2;SDS_P1;SDS_P2;PMS_P1;PMS_P2;Temp;Humidity;BMP_temperature;BMP_pressure;BME280_temperature;BME280_humidity;BME280_pressure;Samples;Min_cycle;Max_cycle;Signal;HPM_P1;HPM_P2
2021/12/04 00:00:13;;;;;;;2.58;1.20;;;;;;;24.65;34.50;100175.97;5046126;28;20028;-42
2021/12/04 00:02:42;;;;;;;3.33;1.48;;;;;;;24.53;34.79;100163.75;5028529;28;20458;-42
2021/12/04 00:05:10;;;;;;;2.33;1.17;;;;;;;24.55;34.62;100161.13;5046419;28;20025;-42
2021/12/04 00:07:39;;;;;;;3.55;1.40;;;;;;;24.52;34.49;100167.25;5028723;28;20529;-42
2021/12/04 00:10:13;;;;;;;3.15;1.38;;;;;;;24.55;34.84;100162.00;5046096;28;20045;-42
2021/12/04 00:12:41;;;;;;;2.08;1.15;;;;;;;24.52;34.59;100161.13;5045960;28;20051;-42
2021/12/04 00:15:10;;;;;;;2.85;1.15;;;;;;;24.54;34.64;100160.28;5045606;28;20041;-42
2021/12/04 00:17:39;;;;;;;5.20;1.25;;;;;;;24.64;34.52;100157.59;5045849;28;20049;-42
2021/12/04 00:20:09;;;;;;;3.20;1.10;;;;;;;24.66;34.39;100154.09;5045938;28;20045;-42
2021/12/04 00:22:38;;;;;;;3.65;1.50;;;;;;;24.65;34.41;100144.50;5045632;28;20033;-43
2021/12/04 00:25:08;;;;;;;2.67;1.15;;;;;;;24.51;34.60;100148.88;5045063;28;20025;-42
2021/12/04 00:27:38;;;;;;;3.20;1.30;;;;;;;24.47;34.65;100131.44;5046061;28;21054;-42
2021/12/04 00:30:08;;;;;;;3.28;1.17;;;;;;;24.50;34.65;100136.66;5045001;28;20478;-43
2021/12/04 00:32:40;;;;;;;2.83;1.15;;;;;;;24.53;34.47;100134.91;5045639;28;20474;-42
2021/12/04 00:49:18;;;;;;;3.28;1.17;;;;;;;24.48;34.97;100109.59;5040909;28;20029;-43
2021/12/04 00:51:20;;;;;;;3.90;1.33;;;;;;;24.51;35.09;100104.31;5038523;28;20120;-43
2021/12/04 00:53:54;;;;;;;3.10;1.23;;;;;;;24.54;34.81;100099.06;5044836;28;20393;-43
2021/12/04 00:56:23;;;;;;;3.58;1.17;;;;;;;24.45;34.98;100109.59;5045460;28;20088;-42
2021/12/04 00:58:52;;;;;;;3.80;1.23;;;;;;;24.40;35.05;100105.22;5045011;28;20091;-42
2021/12/04 01:01:21;;;;;;;4.50;1.50;;;;;;;24.40;34.79;100096.50;5045032;28;20036;-42
2021/12/04 01:03:50;;;;;;;3.45;1.48;;;;;;;24.42;34.79;100087.75;5045189;28;20043;-43
2021/12/04 01:06:19;;;;;;;2.72;1.02;;;;;;;24.44;34.94;100090.34;5045175;28;20029;-43
2021/12/04 01:08:47;;;;;;;3.30;1.10;;;;;;;24.47;34.94;100092.97;5045057;28;20037;-42
2021/12/04 01:11:16;;;;;;;3.20;1.50;;;;;;;24.51;34.58;100093.81;5044993;28;20513;-42
2021/12/04 01:13:45;;;;;;;3.00;1.45;;;;;;;24.57;34.67;100099.06;5044828;28;20024;-41
2021/12/04 01:16:14;;;;;;;3.97;1.92;;;;;;;24.55;34.81;100093.84;5044424;28;20487;-42
2021/12/04 01:18:43;;;;;;;5.47;2.03;;;;;;;24.50;35.00;100087.72;5026930;28;20095;-42
2021/12/04 01:21:12;;;;;;;4.32;1.90;;;;;;;24.47;34.58;100092.13;5026118;28;20029;-42
2021/12/04 01:23:41;;;;;;;5.53;2.28;;;;;;;24.49;34.57;100093.00;5043952;28;20037;-43
2021/12/04 01:26:10;;;;;;;4.80;2.20;;;;;;;24.51;34.63;100093.81;5044096;28;20303;-42
2021/12/04 01:28:39;;;;;;;4.70;1.85;;;;;;;24.45;34.78;100094.72;5044683;28;20159;-43
2021/12/04 01:31:07;;;;;;;6.22;1.88;;;;;;;24.53;34.45;100084.22;5044220;28;20056;-42
2021/12/04 01:33:35;;;;;;;4.93;1.85;;;;;;;24.52;34.42;100075.50;5044298;28;20029;-42
2021/12/04 01:36:04;;;;;;;3.15;1.45;;;;;;;24.54;34.37;100091.22;5042840;28;20554;-42
2021/12/04 01:38:33;;;;;;;2.97;1.50;;;;;;;24.49;34.46;100082.50;5044031;28;20038;-42
2021/12/04 01:41:01;;;;;;;4.45;1.50;;;;;;;24.50;34.43;100092.97;5043399;28;20087;-42
2021/12/04 01:43:30;;;;;;;5.13;1.83;;;;;;;24.47;34.98;100099.97;5044200;28;20024;-43
2021/12/04 01:45:59;;;;;;;4.70;1.90;;;;;;;24.47;34.51;100105.22;5026992;28;20115;-42
2021/12/04 01:48:27;;;;;;;4.10;1.65;;;;;;;24.37;34.90;100105.22;5044558;28;20104;-42
2021/12/04 01:50:56;;;;;;;3.95;1.60;;;;;;;24.45;34.80;100104.34;5026771;28;20098;-42
2021/12/04 01:53:25;;;;;;;2.80;1.35;;;;;;;24.53;34.19;100119.19;5044302;28;20033;-42
2021/12/04 01:55:55;;;;;;;4.88;1.60;;;;;;;24.58;34.30;100124.41;5043828;28;20039;-43
2021/12/04 01:58:26;;;;;;;2.25;1.25;;;;;;;24.53;34.42;100126.16;5043907;28;20033;-42
2021/12/04 02:00:54;;;;;;;3.72;1.52;;;;;;;24.60;34.52;100122.66;5043804;28;20021;-43
2021/12/04 02:03:24;;;;;;;3.75;1.30;;;;;;;24.54;34.74;100126.19;5043951;28;20040;-44
2021/12/04 02:05:52;;;;;;;3.65;1.25;;;;;;;24.56;34.17;100126.16;5044032;28;20917;-43
2021/12/04 02:08:22;;;;;;;7.93;1.77;;;;;;;24.46;34.72;100132.31;5044050;28;20025;-43
2021/12/04 02:10:56;;;;;;;2.97;1.20;;;;;;;24.51;34.27;100135.78;5043896;28;20545;-43
2021/12/04 02:13:25;;;;;;;3.25;1.02;;;;;;;24.51;34.70;100143.66;5025410;28;20032;-45
2021/12/04 02:15:54;;;;;;;2.47;1.20;;;;;;;24.46;34.77;100129.69;5025811;28;20394;-42
2021/12/04 02:18:23;;;;;;;3.70;1.60;;;;;;;24.47;34.44;100139.31;5043286;28;20138;-42
2021/12/04 02:20:52;;;;;;;4.00;1.30;;;;;;;24.53;34.48;100131.41;5043245;28;20030;-42
2021/12/04 02:23:20;;;;;;;2.80;1.13;;;;;;;24.48;34.68;100139.28;5042450;28;20378;-43
2021/12/04 02:25:49;;;;;;;3.92;1.25;;;;;;;24.48;34.67;100139.28;5043889;28;20033;-43
2021/12/04 02:28:17;;;;;;;2.85;1.42;;;;;;;24.42;34.32;100142.81;5043734;28;20037;-43
2021/12/04 02:30:48;;;;;;;2.78;1.17;;;;;;;24.46;34.51;100151.53;5043541;28;20036;-43
2021/12/04 02:33:16;;;;;;;1.95;1.00;;;;;;;24.41;34.43;100141.06;5043551;28;20433;-44
2021/12/04 02:35:50;;;;;;;2.65;1.10;;;;;;;24.45;34.40;100141.06;5043269;28;20037;-42
2021/12/04 02:38:22;;;;;;;3.53;1.00;;;;;;;24.49;34.51;100145.44;5009213;28;20037;-42
2021/12/04 02:40:51;;;;;;;1.50;0.80;;;;;;;24.47;34.62;100145.41;5043467;28;20033;-42
2021/12/04 02:43:20;;;;;;;4.15;1.60;;;;;;;24.49;34.57;100148.91;5042872;28;20747;-43
2021/12/04 02:45:48;;;;;;;3.22;1.17;;;;;;;24.49;34.48;100159.41;5025648;28;20036;-42
2021/12/04 02:48:18;;;;;;;2.08;1.00;;;;;;;24.49;34.27;100163.78;5043499;28;20033;-42
2021/12/04 02:50:46;;;;;;;1.77;0.88;;;;;;;24.44;34.42;100166.38;5043597;28;20021;-43
2021/12/04 02:53:15;;;;;;;2.22;1.00;;;;;;;24.42;34.37;100153.28;5043002;28;20037;-42
2021/12/04 02:55:45;;;;;;;2.58;1.00;;;;;;;24.44;34.66;100148.03;5043307;28;20045;-42
2021/12/04 02:58:16;;;;;;;2.45;1.00;;;;;;;24.48;34.34;100159.41;5042956;28;20071;-43
2021/12/04 03:00:48;;;;;;;2.63;0.85;;;;;;;24.43;34.84;100178.63;5043381;28;20398;-43
2021/12/04 03:03:18;;;;;;;2.75;1.05;;;;;;;24.41;34.48;100183.00;5043184;28;20033;-42
2021/12/04 03:05:49;;;;;;;2.75;0.98;;;;;;;24.45;34.79;100186.47;5043313;28;20043;-43
2021/12/04 03:08:19;;;;;;;2.60;1.10;;;;;;;24.46;34.49;100184.75;5043237;28;20398;-43
2021/12/04 03:10:48;;;;;;;3.53;1.40;;;;;;;24.42;34.27;100182.13;5043102;28;20041;-42
2021/12/04 03:13:19;;;;;;;3.15;1.60;;;;;;;24.41;34.37;100196.09;5042979;28;20052;-42
2021/12/04 03:15:56;;;;;;;5.05;1.95;;;;;;;24.42;34.63;100213.59;5025584;28;20452;-42
2021/12/04 03:18:26;;;;;;;4.30;1.80;;;;;;;24.44;34.56;100221.44;5042545;28;20135;-43
2021/12/04 03:20:55;;;;;;;2.67;1.52;;;;;;;24.42;34.27;100218.84;5043029;28;20043;-45
2021/12/04 03:23:29;;;;;;;4.00;1.90;;;;;;;24.52;34.11;100219.69;5042528;28;20025;-43
2021/12/04 03:25:59;;;;;;;3.60;1.60;;;;;;;24.51;34.49;100225.81;5042962;28;20454;-42
2021/12/04 03:28:28;;;;;;;3.60;1.70;;;;;;;24.49;34.15;100219.69;5042718;28;20543;-43
2021/12/04 03:31:12;;;;;;;2.85;1.52;;;;;;;24.48;34.29;100233.69;5043201;28;20025;-43
2021/12/04 03:42:03;;;;;;;2.53;1.35;;;;;;;24.39;34.52;100229.31;5036182;28;20411;-43
2021/12/04 03:44:31;;;;;;;3.33;1.55;;;;;;;24.43;34.42;100235.41;5042618;28;20102;-42
2021/12/04 03:47:01;;;;;;;3.80;1.30;;;;;;;24.44;34.34;100237.16;5042616;28;20040;-42
2021/12/04 03:49:29;;;;;;;2.15;1.08;;;;;;;24.41;34.27;100232.81;5041853;28;20029;-43
2021/12/04 03:51:58;;;;;;;3.30;1.30;;;;;;;24.39;34.43;100231.94;5042213;28;20090;-43
2021/12/04 03:54:28;;;;;;;3.35;1.40;;;;;;;24.38;34.42;100224.94;5041859;28;20545;-43
2021/12/04 03:57:03;;;;;;;2.97;1.27;;;;;;;24.45;34.13;100232.81;5042526;28;20044;-43
2021/12/04 03:59:34;;;;;;;3.15;1.20;;;;;;;24.46;34.44;100219.69;5026079;28;20025;-43
2021/12/04 04:02:03;;;;;;;2.75;1.30;;;;;;;24.45;34.03;100224.94;5009654;28;20119;-43
2021/12/04 04:04:32;;;;;;;2.97;1.20;;;;;;;24.39;34.36;100216.22;5044498;28;20067;-43
2021/12/04 04:07:01;;;;;;;3.10;1.20;;;;;;;24.34;34.16;100219.72;5028653;28;20029;-44
2021/12/04 04:09:30;;;;;;;2.33;1.05;;;;;;;24.42;34.21;100221.44;5046181;28;20444;-43
2021/12/04 04:11:59;;;;;;;2.15;1.17;;;;;;;24.45;33.76;100225.81;5045843;28;20128;-42
2021/12/04 04:14:27;;;;;;;4.65;1.33;;;;;;;24.41;34.41;100227.56;5045902;28;20520;-42
2021/12/04 04:16:57;;;;;;;2.97;1.00;;;;;;;24.39;34.30;100229.31;5045967;28;20151;-42
2021/12/04 04:19:26;;;;;;;2.80;1.30;;;;;;;24.49;34.10;100238.06;5045910;28;20057;-43
2021/12/04 04:21:56;;;;;;;3.28;1.15;;;;;;;24.45;34.05;100236.28;5011953;28;20025;-42
2021/12/04 04:24:27;;;;;;;1.92;1.02;;;;;;;24.45;33.98;100246.78;5045796;28;20103;-42
2021/12/04 04:26:56;;;;;;;2.80;1.00;;;;;;;24.45;33.90;100249.41;5045980;28;20445;-42
2021/12/04 04:29:25;;;;;;;2.05;0.93;;;;;;;24.48;34.09;100252.03;5045873;28;20116;-42
2021/12/04 04:31:55;;;;;;;2.38;1.08;;;;;;;24.44;34.11;100247.66;5045865;28;20025;-42
2021/12/04 04:34:27;;;;;;;3.10;1.38;;;;;;;24.39;34.54;100255.53;5027716;28;20140;-42
2021/12/04 05:12:30;;;;;;;4.18;1.70;;;;;;;24.42;33.95;100280.84;5037848;28;20114;-46
2021/12/04 05:14:59;;;;;;;4.07;1.50;;;;;;;24.36;34.03;100286.97;5044223;28;20036;-44
2021/12/04 05:17:31;;;;;;;3.30;1.45;;;;;;;24.35;34.28;100289.63;5044306;28;20482;-43
2021/12/04 05:20:00;;;;;;;2.92;1.40;;;;;;;24.33;34.18;100292.22;5044639;28;20088;-42
2021/12/04 05:22:28;;;;;;;4.68;1.65;;;;;;;24.35;33.80;100294.84;5011310;28;20107;-42
2021/12/04 05:24:57;;;;;;;4.55;1.60;;;;;;;24.33;33.94;100292.22;5044078;28;20052;-42
2021/12/04 05:27:25;;;;;;;5.28;2.03;;;;;;;24.30;33.93;100289.63;5044423;28;20040;-42
2021/12/04 05:29:54;;;;;;;2.70;1.35;;;;;;;24.35;34.00;100292.22;5044553;28;20056;-44
2021/12/04 05:32:23;;;;;;;4.72;1.83;;;;;;;24.32;34.12;100293.13;5044818;28;20025;-45
2021/12/04 05:34:51;;;;;;;4.10;1.58;;;;;;;24.34;33.91;100291.34;5026865;28;20084;-42
2021/12/04 05:37:19;;;;;;;3.63;1.20;;;;;;;24.35;33.87;100300.97;5044401;28;20025;-42
2021/12/04 05:39:48;;;;;;;3.92;1.75;;;;;;;24.31;34.35;100306.19;5044288;28;20029;-42
2021/12/04 05:42:16;;;;;;;3.75;1.50;;;;;;;24.37;34.05;100307.06;5044374;28;20032;-42
2021/12/04 05:44:45;;;;;;;4.65;1.65;;;;;;;24.39;34.07;100307.97;5044442;28;20029;-42
2021/12/04 05:47:27;;;;;;;5.22;1.52;;;;;;;24.36;33.72;100318.44;5044414;28;20025;-45
2021/12/04 05:50:33;;;;;;;5.00;1.33;;;;;;;24.39;34.09;100315.81;5044253;28;20397;-44
2021/12/04 05:55:23;;;;;;;4.57;1.25;;;;;;;24.45;33.74;100320.19;5044282;28;20044;-44
2021/12/04 05:57:52;;;;;;;3.45;1.60;;;;;;;24.40;34.04;100330.69;5043750;28;20453;-43
2021/12/04 06:00:23;;;;;;;2.33;1.10;;;;;;;24.36;33.85;100328.06;5044260;28;20028;-46
2021/12/04 06:02:52;;;;;;;3.03;0.98;;;;;;;24.37;33.82;100330.66;5044386;28;20036;-45
2021/12/04 06:05:20;;;;;;;5.03;1.95;;;;;;;24.37;33.81;100346.41;5026697;28;20075;-43
2021/12/04 06:07:49;;;;;;;3.72;2.13;;;;;;;24.32;33.81;100342.91;5043870;28;20036;-43
2021/12/04 06:10:18;;;;;;;5.72;2.05;;;;;;;24.31;34.08;100343.78;5044019;28;20036;-43
2021/12/04 06:12:46;;;;;;;4.25;1.88;;;;;;;24.38;33.82;100342.06;5043547;28;20032;-43
2021/12/04 06:15:14;;;;;;;5.00;2.00;;;;;;;24.38;33.89;100349.91;5043805;28;20086;-44
2021/12/04 06:17:43;;;;;;;4.30;1.50;;;;;;;24.42;33.98;100352.53;5043300;28;20505;-43
2021/12/04 06:22:59;;;;;;;3.88;1.95;;;;;;;24.35;34.12;100361.25;5036287;28;20045;-43
2021/12/04 06:25:28;;;;;;;3.38;1.52;;;;;;;24.34;34.04;100362.13;5043772;28;20029;-43
2021/12/04 06:27:58;;;;;;;4.38;1.83;;;;;;;24.32;33.75;100369.13;5043447;28;20375;-44
2021/12/04 06:30:27;;;;;;;4.00;1.60;;;;;;;24.37;34.12;100372.63;5043751;28;20029;-45
2021/12/04 06:32:56;;;;;;;3.33;1.70;;;;;;;24.37;34.03;100383.09;5043471;28;20028;-44
2021/12/04 06:35:25;;;;;;;2.83;1.50;;;;;;;24.38;33.71;100368.25;5042898;28;20079;-44
2021/12/04 06:37:54;;;;;;;3.22;1.52;;;;;;;24.35;33.74;100368.25;5043203;28;20060;-45
2021/12/04 06:40:26;;;;;;;4.50;1.65;;;;;;;24.36;33.68;100376.09;5043627;28;20067;-43
2021/12/04 06:42:56;;;;;;;3.55;1.40;;;;;;;24.33;33.81;100376.09;5043358;28;20028;-44
2021/12/04 06:45:25;;;;;;;3.13;1.52;;;;;;;24.35;33.55;100363.00;5043346;28;20806;-44
2021/12/04 06:47:57;;;;;;;2.95;1.30;;;;;;;24.33;34.03;100378.72;5043120;28;20025;-43
2021/12/04 06:50:50;;;;;;;3.80;1.73;;;;;;;24.33;33.99;100386.59;5025378;28;20025;-43
2021/12/04 06:55:54;;;;;;;4.72;1.70;;;;;;;24.32;34.10;100400.59;5043258;28;20389;-44
2021/12/04 06:58:24;;;;;;;2.45;1.23;;;;;;;24.28;33.72;100399.69;5042870;28;20091;-43
2021/12/04 07:00:53;;;;;;;2.83;1.23;;;;;;;24.33;33.92;100393.59;5043028;28;20029;-43
2021/12/04 07:03:22;;;;;;;2.58;1.35;;;;;;;24.34;34.06;100411.94;5025179;28;20082;-43
2021/12/04 07:05:50;;;;;;;3.95;1.55;;;;;;;24.34;33.76;100411.94;5043202;28;20041;-45
2021/12/04 07:08:19;;;;;;;5.13;1.45;;;;;;;24.34;33.56;100430.28;5043304;28;20032;-43
2021/12/04 07:10:47;;;;;;;3.22;1.33;;;;;;;24.33;34.09;100438.16;5043530;28;20041;-44
2021/12/04 07:13:17;;;;;;;4.03;1.15;;;;;;;24.41;33.83;100431.16;5042990;28;20283;-44
2021/12/04 07:15:46;;;;;;;4.00;1.33;;;;;;;24.42;33.58;100446.03;5042883;28;20112;-44
2021/12/04 07:18:15;;;;;;;3.90;1.35;;;;;;;24.37;33.48;100438.16;5043198;28;20049;-44
2021/12/04 07:20:43;;;;;;;7.80;1.27;;;;;;;24.37;33.75;100450.41;5043187;28;20497;-44
2021/12/04 07:23:11;;;;;;;10.10;1.30;;;;;;;24.36;33.74;100444.28;5042960;28;20040;-43
2021/12/04 07:25:39;;;;;;;3.78;1.20;;;;;;;24.40;33.93;100446.03;5043010;28;20133;-44
2021/12/04 07:28:07;;;;;;;8.10;1.13;;;;;;;24.31;33.86;100445.13;5025127;28;20066;-43
2021/12/04 07:30:36;;;;;;;7.03;1.67;;;;;;;24.32;33.52;100455.63;5025332;28;20029;-42
2021/12/04 07:33:04;;;;;;;4.75;1.30;;;;;;;24.42;33.50;100462.66;5042864;28;20040;-42
2021/12/04 07:35:33;;;;;;;2.92;1.05;;;;;;;24.43;33.52;100463.50;5042896;28;20033;-42
2021/12/04 07:38:01;;;;;;;3.75;0.80;;;;;;;24.48;33.50;100468.78;5024687;28;20059;-43
2021/12/04 07:40:30;;;;;;;4.88;1.58;;;;;;;24.49;33.60;100474.03;5028415;28;20025;-42
2021/12/04 07:42:58;;;;;;;4.20;1.20;;;;;;;24.52;33.82;100475.78;5046464;28;20033;-42
2021/12/04 07:45:26;;;;;;;5.10;1.70;;;;;;;24.49;33.71;100475.78;5046520;28;20509;-42
2021/12/04 07:47:55;;;;;;;2.60;1.00;;;;;;;24.48;33.89;100481.91;5046809;28;20036;-45
2021/12/04 07:50:22;;;;;;;3.33;1.20;;;;;;;24.55;33.85;100491.53;5028787;28;20033;-41
2021/12/04 07:52:51;;;;;;;4.75;1.75;;;;;;;24.51;33.50;100498.50;5046147;28;20033;-42
2021/12/04 07:55:19;;;;;;;5.32;1.77;;;;;;;24.47;33.46;100509.84;5046702;28;20496;-42
2021/12/04 07:57:48;;;;;;;8.20;1.90;;;;;;;24.54;33.44;100508.13;5028770;28;20131;-42
2021/12/04 08:00:18;;;;;;;5.15;1.85;;;;;;;24.49;33.40;100515.13;5046750;28;20074;-42
2021/12/04 08:02:48;;;;;;;4.90;1.75;;;;;;;24.42;34.06;100522.06;5046359;28;20039;-42
2021/12/04 08:05:18;;;;;;;6.22;2.22;;;;;;;24.48;33.54;100529.09;5046035;28;20056;-42
2021/12/04 08:07:47;;;;;;;8.65;1.67;;;;;;;24.50;33.77;100532.56;5046118;28;20054;-42
2021/12/04 08:10:18;;;;;;;7.03;2.35;;;;;;;24.52;33.82;100534.34;5046041;28;20115;-43
2021/12/04 08:12:46;;;;;;;4.72;2.03;;;;;;;24.52;33.58;100523.88;5045418;28;20051;-43
2021/12/04 08:15:16;;;;;;;3.97;1.17;;;;;;;24.53;33.66;100529.97;5028414;28;20051;-42
2021/12/04 08:17:44;;;;;;;7.53;1.60;;;;;;;24.55;33.60;100533.47;5045779;28;20048;-42
2021/12/04 08:20:14;;;;;;;10.85;1.48;;;;;;;24.58;33.57;100546.59;5045914;28;20043;-41
2021/12/04 08:22:43;;;;;;;4.13;1.40;;;;;;;24.47;33.73;100543.06;5046182;28;20033;-43
2021/12/04 08:25:17;;;;;;;4.75;1.60;;;;;;;24.56;33.68;100537.84;5045409;28;20486;-44
2021/12/04 08:27:48;;;;;;;6.97;1.95;;;;;;;24.55;33.84;100523.00;5045570;28;20029;-42
2021/12/04 08:30:21;;;;;;;4.20;1.70;;;;;;;24.58;33.64;100520.38;5045739;28;20060;-42
2021/12/04 08:32:52;;;;;;;5.10;1.52;;;;;;;24.60;33.78;100537.00;5028087;28;20032;-42
2021/12/04 08:35:23;;;;;;;5.15;1.38;;;;;;;24.61;33.62;100544.00;5045897;28;20072;-42
2021/12/04 08:37:54;;;;;;;4.97;1.42;;;;;;;24.61;33.74;100559.75;5028335;28;20403;-42
2021/12/04 08:40:23;;;;;;;3.88;1.50;;;;;;;24.70;33.76;100559.78;5045595;28;20090;-43
2021/12/04 08:42:51;;;;;;;2.97;1.10;;;;;;;24.78;33.57;100569.44;5045747;28;20126;-41
2021/12/04 08:45:20;;;;;;;4.57;1.40;;;;;;;24.66;33.72;100562.38;5045060;28;20028;-41
2021/12/04 08:47:49;;;;;;;3.35;1.23;;;;;;;24.64;33.62;100565.00;5045343;28;20041;-42
2021/12/04 08:50:22;;;;;;;3.13;1.17;;;;;;;24.63;33.94;100578.09;5027610;28;20033;-43
2021/12/04 08:52:51;;;;;;;3.03;1.30;;;;;;;24.77;33.41;100580.81;5045391;28;20028;-42
2021/12/04 08:55:19;;;;;;;4.93;1.25;;;;;;;24.67;33.46;100579.88;5045289;28;20601;-45
2021/12/04 08:57:48;;;;;;;3.90;1.23;;;;;;;24.74;33.88;100581.66;5045163;28;20045;-43
2021/12/04 09:00:21;;;;;;;2.20;0.85;;;;;;;24.77;33.43;100593.94;5045293;28;20021;-43
2021/12/04 09:02:48;;;;;;;5.28;1.52;;;;;;;24.79;33.55;100595.66;5045316;28;20029;-42
2021/12/04 09:05:18;;;;;;;2.75;0.98;;;;;;;24.79;33.39;100606.16;5045381;28;20020;-42
2021/12/04 09:07:47;;;;;;;4.10;1.45;;;;;;;24.82;33.29;100600.94;5045143;28;20032;-42
2021/12/04 09:10:16;;;;;;;1.92;0.93;;;;;;;24.77;33.72;100594.78;5044950;28;20033;-41
2021/12/04 09:12:46;;;;;;;4.18;1.15;;;;;;;24.76;33.59;100600.03;5027037;28;20025;-45
2021/12/04 09:15:17;;;;;;;4.15;1.30;;;;;;;24.78;33.52;100609.66;5044892;28;20032;-42
2021/12/04 09:17:46;;;;;;;3.90;1.48;;;;;;;24.79;33.92;100615.78;5044897;28;20060;-42
2021/12/04 09:20:16;;;;;;;4.40;1.30;;;;;;;24.83;33.27;100618.44;5044486;28;20094;-42
2021/12/04 09:22:46;;;;;;;4.20;1.45;;;;;;;24.81;33.70;100633.28;5044919;28;20033;-43
2021/12/04 09:25:20;;;;;;;6.05;1.95;;;;;;;24.82;33.56;100635.03;5044574;28;20111;-43
2021/12/04 10:04:02;;;;;;;4.28;1.80;;;;;;;25.00;33.20;100705.06;5036375;28;20477;-43
2021/12/04 10:12:42;;;;;;;4.05;1.20;;;;;;;24.99;33.44;100705.94;5039427;28;20102;-43
2021/12/04 10:20:38;;;;;;;4.20;1.27;;;;;;;24.93;33.40;100728.66;5043925;28;20040;-42
2021/12/04 10:23:33;;;;;;;3.60;1.45;;;;;;;24.96;33.44;100740.06;5043732;28;20025;-42
2021/12/04 10:34:02;;;;;;;2.75;1.23;;;;;;;25.07;32.91;100729.59;5035324;28;20037;-42
2021/12/04 10:36:35;;;;;;;4.07;1.30;;;;;;;25.01;33.12;100719.09;5042996;28;20029;-42
2021/12/04 10:39:08;;;;;;;3.05;1.20;;;;;;;25.02;33.19;100726.97;5043351;28;20427;-42
2021/12/04 10:41:42;;;;;;;4.75;1.50;;;;;;;24.98;32.88;100740.06;5044443;28;20037;-42
2021/12/04 10:44:30;;;;;;;3.37;1.40;;;;;;;24.95;32.95;100737.41;5043425;28;20025;-42
2021/12/04 10:47:03;;;;;;;2.40;1.15;;;;;;;24.94;32.96;100726.06;5043133;28;20659;-41
2021/12/04 10:50:31;;;;;;;2.42;1.02;;;;;;;24.92;32.94;100732.16;5026049;28;20144;-43
2021/12/04 10:52:56;;;;;;;3.58;1.58;;;;;;;24.97;33.10;100735.69;5039186;28;20044;-41
2021/12/04 10:58:45;;;;;;;2.58;1.50;;;;;;;24.80;32.90;100714.63;5042819;28;20041;-44
2021/12/04 11:01:43;;;;;;;5.25;2.10;;;;;;;24.96;32.90;100733.94;5043053;28;20499;-42
2021/12/04 11:04:07;;;;;;;3.20;1.55;;;;;;;24.92;32.63;100732.16;5042201;28;20037;-42
2021/12/04 11:42:19;;;;;;;3.47;1.63;;;;;;;24.81;32.91;100766.22;5046591;28;20025;-43
2021/12/04 11:44:53;;;;;;;2.97;1.13;;;;;;;24.88;32.42;100762.75;5046471;28;20032;-42
2021/12/04 11:47:22;;;;;;;3.45;1.05;;;;;;;24.80;32.74;100757.47;5046917;28;20029;-43
2021/12/04 11:49:51;;;;;;;4.10;1.10;;;;;;;24.77;32.64;100753.94;5046563;28;20037;-43
2021/12/04 11:52:21;;;;;;;2.90;1.13;;;;;;;24.76;33.05;100752.19;5046162;28;20443;-46
2021/12/04 11:54:50;;;;;;;5.72;1.30;;;;;;;24.78;32.95;100753.94;5046285;28;20492;-42
2021/12/04 11:57:30;;;;;;;2.42;1.10;;;;;;;24.81;32.92;100753.97;5045604;28;20058;-44
2021/12/04 12:00:28;;;;;;;2.85;1.00;;;;;;;24.86;32.79;100761.84;5046590;28;20435;-42
2021/12/04 12:03:17;;;;;;;2.35;1.08;;;;;;;25.07;32.66;100768.09;5046165;28;20037;-43
2021/12/04 12:05:53;;;;;;;3.03;0.90;;;;;;;25.10;32.10;100770.75;5046038;28;20024;-42
2021/12/04 12:08:42;;;;;;;2.53;1.00;;;;;;;25.24;31.85;100762.94;5028394;28;20025;-42
2021/12/04 12:11:14;;;;;;;2.20;0.77;;;;;;;25.15;32.15;100772.53;5046052;28;20123;-43
2021/12/04 12:13:46;;;;;;;2.70;0.98;;;;;;;25.20;32.19;100774.31;5028244;28;20398;-43
2021/12/04 12:16:21;;;;;;;2.17;0.90;;;;;;;25.10;32.04;100770.75;5046407;28;20029;-43
2021/12/04 12:18:54;;;;;;;2.78;1.10;;;;;;;25.05;32.02;100769.84;5045871;28;20057;-42
2021/12/04 12:21:30;;;;;;;3.90;1.10;;;;;;;25.10;31.91;100774.25;5028237;28;20150;-44
2021/12/04 12:24:32;;;;;;;2.28;0.98;;;;;;;25.20;31.75;100769.91;5045865;28;20037;-44
2021/12/04 12:38:38;;;;;;;3.80;1.55;;;;;;;24.87;32.63;100788.13;5034912;28;20072;-44
2021/12/04 12:41:11;;;;;;;1.55;0.90;;;;;;;24.92;32.54;100795.13;5038215;28;20037;-43
2021/12/04 12:43:47;;;;;;;3.45;1.20;;;;;;;24.96;32.56;100792.56;5028691;28;20122;-43
2021/12/04 12:46:16;;;;;;;4.88;1.10;;;;;;;24.98;32.67;100787.31;5045587;28;20033;-42
2021/12/04 12:48:45;;;;;;;3.03;1.15;;;;;;;24.97;32.50;100773.31;5045497;28;20033;-43
2021/12/04 12:51:14;;;;;;;3.30;1.20;;;;;;;24.95;32.89;100768.91;5045024;28;20029;-42
2021/12/04 12:53:46;;;;;;;3.70;1.48;;;;;;;24.87;33.17;100774.13;5045420;28;20048;-43
2021/12/04 12:56:16;;;;;;;2.97;0.98;;;;;;;24.93;33.12;100763.66;5045435;28;20044;-43
2021/12/04 12:58:50;;;;;;;2.95;1.00;;;;;;;24.95;33.05;100768.91;5045376;28;20116;-42
2021/12/04 13:13:30;;;;;;;1.65;0.77;;;;;;;25.03;33.06;100747.09;5041052;28;20037;-43
2021/12/04 13:16:05;;;;;;;1.73;0.93;;;;;;;25.02;32.79;100742.72;5027342;28;20127;-42
2021/12/04 13:18:37;;;;;;;3.13;1.20;;;;;;;25.05;32.84;100740.97;5044687;28;20064;-42
2021/12/04 13:21:08;;;;;;;1.92;0.90;;;;;;;25.07;32.76;100742.72;5045089;28;20478;-42
2021/12/04 13:23:38;;;;;;;3.08;0.98;;;;;;;25.06;33.13;100732.22;5045184;28;20497;-44
2021/12/04 13:26:10;;;;;;;4.88;1.08;;;;;;;25.07;32.73;100749.75;5044903;28;20035;-43
2021/12/04 13:28:41;;;;;;;2.33;0.77;;;;;;;25.10;32.99;100740.13;5045121;28;20033;-44
2021/12/04 13:31:10;;;;;;;2.90;0.75;;;;;;;25.09;33.06;100746.25;5044765;28;20119;-43
2021/12/04 13:33:40;;;;;;;2.05;0.70;;;;;;;25.08;32.92;100741.00;5044576;28;20037;-43
2021/12/04 13:36:25;;;;;;;3.55;1.10;;;;;;;25.08;33.06;100736.59;5026115;28;20051;-43
2021/12/04 13:38:58;;;;;;;4.53;1.40;;;;;;;25.06;32.90;100740.09;5044221;28;20029;-43
2021/12/04 13:41:28;;;;;;;3.05;1.13;;;;;;;25.09;32.80;100730.50;5044492;28;20029;-43
2021/12/04 13:43:58;;;;;;;1.70;0.90;;;;;;;25.11;33.11;100735.75;5043894;28;20190;-44
2021/12/04 13:46:27;;;;;;;2.97;0.98;;;;;;;25.14;33.15;100735.78;5044589;28;20040;-44
2021/12/04 13:49:04;;;;;;;4.28;0.93;;;;;;;25.13;33.15;100740.13;5044031;28;20090;-43
2021/12/04 13:51:34;;;;;;;3.25;1.05;;;;;;;25.11;32.85;100733.13;5044566;28;20059;-43
2021/12/04 13:54:03;;;;;;;5.78;1.05;;;;;;;25.15;32.73;100727.03;5044272;28;20033;-43
2021/12/04 13:56:32;;;;;;;4.18;0.80;;;;;;;25.31;32.78;100726.22;5044137;28;20105;-43
2021/12/04 13:59:04;;;;;;;2.10;1.02;;;;;;;25.22;32.65;100734.06;5025982;28;20032;-44
2021/12/04 14:01:42;;;;;;;3.75;0.93;;;;;;;25.21;32.90;100727.03;5044090;28;20479;-43
2021/12/04 14:04:17;;;;;;;2.35;0.82;;;;;;;25.20;32.85;100727.91;5044004;28;20033;-44
2021/12/04 14:06:55;;;;;;;3.90;1.17;;;;;;;25.21;32.61;100732.28;5044063;28;20056;-43
2021/12/04 14:09:37;;;;;;;4.60;1.38;;;;;;;25.24;32.34;100745.44;5044177;28;20483;-43
2021/12/04 14:12:06;;;;;;;4.13;1.40;;;;;;;25.20;32.54;100746.28;5044073;28;20040;-43
2021/12/04 14:14:36;;;;;;;5.18;1.80;;;;;;;25.11;32.59;100731.38;5044149;28;20021;-44
2021/12/04 14:17:08;;;;;;;2.88;1.20;;;;;;;25.10;32.64;100737.50;5044041;28;20116;-44
2021/12/04 14:19:38;;;;;;;2.53;1.23;;;;;;;25.16;32.67;100734.91;5043667;28;20562;-43
2021/12/04 14:22:18;;;;;;;5.03;1.70;;;;;;;24.99;32.86;100713.81;5043864;28;20029;-44
2021/12/04 14:24:59;;;;;;;6.20;1.65;;;;;;;25.11;33.00;100748.88;5043601;28;20037;-43
2021/12/04 14:27:31;;;;;;;3.05;1.48;;;;;;;25.08;33.01;100743.63;5026163;28;20040;-44
2021/12/04 14:30:01;;;;;;;6.18;1.67;;;;;;;25.12;32.61;100745.41;5043540;28;20031;-43
2021/12/04 14:32:33;;;;;;;5.68;1.55;;;;;;;25.15;32.46;100742.78;5025636;28;20029;-42
2021/12/04 14:35:06;;;;;;;2.88;1.17;;;;;;;25.17;32.63;100741.03;5043520;28;20037;-42
2021/12/04 14:37:36;;;;;;;4.80;1.70;;;;;;;25.17;32.80;100741.03;5025776;28;20025;-42
2021/12/04 14:40:07;;;;;;;4.78;1.60;;;;;;;25.19;32.95;100739.28;5026161;28;20107;-41
2021/12/04 14:42:37;;;;;;;3.55;1.23;;;;;;;25.12;32.71;100734.91;5043439;28;20024;-43
2021/12/04 14:45:09;;;;;;;3.47;1.20;;;;;;;25.13;32.97;100745.38;5025788;28;20567;-42